Time;durP1;ratioP1;P1;durP2;ratioP2;P2;SDS_P1;SDS_P2;PMS_P1;PMS_P2;Temp;Humidity;BMP_temperature;BMP_pressure;BME280_temperature;BME280_humidity;BME280_pressure;Samples;Min_cycle;Max_cycle;Signal;HPM_P1;HPM_P2
2021/08/05 00:02:15;;;;;;;;;;;;;;;;;;2137432;59;18293;-69
2021/08/05 00:04:41;;;;;;;;;;;;;;;;;;2136200;59;14487;-70
2021/08/05 00:07:08;;;;;;;;;;;;;;;;;;2136664;59;18442;-70
2021/08/05 00:09:35;;;;;;;;;;;;;;;;;;2135547;67;12527;-71
2021/08/05 00:12:01;;;;;;;;;;;;;;;;;;2135444;63;14268;-70
2021/08/05 00:14:29;;;;;;;;;;;;;;;;;;2137658;59;18868;-70
2021/08/05 00:16:56;;;;;;;;;;;;;;;;;;2136165;59;57055;-70
2021/08/05 00:19:22;;;;;;;;;;;;;;;;;;2135861;59;14806;-71
2021/08/05 00:21:49;;;;;;;;;;;;;;;;;;2136049;63;15649;-71
2021/08/05 00:24:15;;;;;;;;;;;;;;;;;;2137335;59;15416;-71
2021/08/05 00:26:42;;;;;;;;;;;;;;;;;;2136239;59;17479;-69
2021/08/05 00:29:08;;;;;;;;;;;;;;;;;;2136490;59;13549;-71
2021/08/05 00:31:36;;;;;;;;;;;;;;;;;;2135822;67;17920;-69
2021/08/05 00:34:03;;;;;;;;;;;;;;;;;;2130455;59;21089;-69
2021/08/05 00:36:29;;;;;;;;;;;;;;;;;;2133669;59;16526;-71
2021/08/05 00:38:56;;;;;;;;;;;;;;;;;;2134224;67;14238;-70
2021/08/05 00:41:22;;;;;;;;;;;;;;;;;;2137082;59;14705;-71
2021/08/05 00:43:49;;;;;;;;;;;;;;;;;;2136400;59;14546;-70
2021/08/05 00:46:15;;;;;;;;;;;;;;;;;;2135843;67;22293;-70
2021/08/05 00:48:43;;;;;;;;;;;;;;;;;;2135513;67;14898;-70
2021/08/05 00:51:10;;;;;;;;;;;;;;;;;;2127995;59;16850;-70
2021/08/05 00:53:38;;;;;;;;;;;;;;;;;;2132684;59;15813;-71
2021/08/05 00:56:05;;;;;;;;;;;;;;;;;;2132656;67;13852;-71
2021/08/05 00:58:31;;;;;;;;;;;;;;;;;;2136007;67;16170;-70
2021/08/05 01:01:01;;;;;;;;;;;;;;;;;;2136081;59;14785;-70
2021/08/05 01:03:29;;;;;;;;;;;;;;;;;;2135196;67;55497;-70
2021/08/05 01:06:02;;;;;;;;;;;;;;;;;;2134429;59;42179;-70
2021/08/05 01:08:28;;;;;;;;;;;;;;;;;;2135940;59;14846;-70
2021/08/05 01:10:57;;;;;;;;;;;;;;;;;;2134197;67;14686;-70
2021/08/05 01:13:29;;;;;;;;;;;;;;;;;;2135805;59;13903;-69
2021/08/05 01:15:56;;;;;;;;;;;;;;;;;;2133075;67;17428;-71
2021/08/05 01:18:26;;;;;;;;;;;;;;;;;;2135758;59;14328;-70
2021/08/05 01:20:53;;;;;;;;;;;;;;;;;;2133412;63;14045;-69
2021/08/05 01:23:24;;;;;;;;;;;;;;;;;;2135688;59;14014;-70
2021/08/05 01:25:53;;;;;;;;;;;;;;;;;;2133189;59;18481;-70
2021/08/05 01:28:22;;;;;;;;;;;;;;;;;;2134880;59;15097;-71
2021/08/05 01:30:50;;;;;;;;;;;;;;;;;;2135038;67;14486;-70
2021/08/05 01:33:17;;;;;;;;;;;;;;;;;;2133975;59;16307;-70
2021/08/05 01:35:44;;;;;;;;;;;;;;;;;;2132985;59;15344;-70
2021/08/05 01:38:12;;;;;;;;;;;;;;;;;;2136196;59;14994;-70
2021/08/05 01:40:39;;;;;;;;;;;;;;;;;;2132921;59;18833;-70
2021/08/05 01:43:06;;;;;;;;;;;;;;;;;;2134312;63;14676;-70
2021/08/05 01:45:35;;;;;;;;;;;;;;;;;;2133245;59;13768;-70
2021/08/05 01:48:02;;;;;;;;;;;;;;;;;;2132742;59;24199;-70
2021/08/05 01:50:28;;;;;;;;;;;;;;;;;;2134742;59;17984;-70
2021/08/05 01:52:55;;;;;;;;;;;;;;;;;;2132962;59;13489;-70
2021/08/05 01:55:21;;;;;;;;;;;;;;;;;;2134462;59;15492;-70
2021/08/05 01:57:48;;;;;;;;;;;;;;;;;;2131993;59;16760;-70
2021/08/05 02:00:15;;;;;;;;;;;;;;;;;;2134708;67;31900;-71
2021/08/05 02:02:43;;;;;;;;;;;;;;;;;;2136269;59;13863;-70
2021/08/05 02:05:12;;;;;;;;;;;;;;;;;;2131368;59;66538;-70
2021/08/05 02:07:43;;;;;;;;;;;;;;;;;;2133899;67;13655;-70
2021/08/05 02:10:14;;;;;;;;;;;;;;;;;;2132599;59;13897;-70
2021/08/05 02:12:44;;;;;;;;;;;;;;;;;;2134150;67;13469;-70
2021/08/05 02:15:11;;;;;;;;;;;;;;;;;;2134178;59;14040;-70
2021/08/05 02:17:38;;;;;;;;;;;;;;;;;;2131924;59;15654;-70
2021/08/05 02:20:08;;;;;;;;;;;;;;;;;;2136753;67;18602;-69
2021/08/05 02:22:35;;;;;;;;;;;;;;;;;;2133932;59;14782;-70
2021/08/05 02:25:02;;;;;;;;;;;;;;;;;;2136146;59;14643;-70
2021/08/05 02:27:29;;;;;;;;;;;;;;;;;;2132654;59;43853;-69
2021/08/05 02:29:57;;;;;;;;;;;;;;;;;;2134591;59;15143;-70
2021/08/05 02:32:24;;;;;;;;;;;;;;;;;;2135927;59;17729;-70
2021/08/05 02:34:51;;;;;;;;;;;;;;;;;;2132987;59;15373;-70
2021/08/05 02:37:19;;;;;;;;;;;;;;;;;;2135822;67;15881;-70
2021/08/05 02:39:45;;;;;;;;;;;;;;;;;;2134762;59;13808;-69
2021/08/05 02:42:12;;;;;;;;;;;;;;;;;;2135099;59;13551;-70
2021/08/05 02:44:39;;;;;;;;;;;;;;;;;;2137679;67;17200;-69
2021/08/05 02:47:06;;;;;;;;;;;;;;;;;;2132852;59;15682;-70
2021/08/05 02:49:34;;;;;;;;;;;;;;;;;;2133793;67;16771;-70
2021/08/05 02:52:01;;;;;;;;;;;;;;;;;;2132914;59;15738;-70
2021/08/05 02:54:29;;;;;;;;;;;;;;;;;;2136442;59;14996;-69
2021/08/05 02:56:56;;;;;;;;;;;;;;;;;;2136053;59;14195;-70
2021/08/05 02:59:24;;;;;;;;;;;;;;;;;;2133474;59;14181;-70
2021/08/05 03:01:51;;;;;;;;;;;;;;;;;;2136108;59;16031;-70
2021/08/05 03:04:17;;;;;;;;;;;;;;;;;;2134322;59;14210;-70
2021/08/05 03:06:46;;;;;;;;;;;;;;;;;;2135187;67;48881;-69
2021/08/05 03:09:12;;;;;;;;;;;;;;;;;;2133545;67;13992;-70
2021/08/05 03:11:40;;;;;;;;;;;;;;;;;;2132146;59;13767;-70
2021/08/05 03:14:07;;;;;;;;;;;;;;;;;;2135229;59;14047;-70
2021/08/05 03:16:33;;;;;;;;;;;;;;;;;;2132975;59;14630;-70
2021/08/05 03:18:59;;;;;;;;;;;;;;;;;;2135521;59;15877;-70
2021/08/05 03:21:26;;;;;;;;;;;;;;;;;;2137128;67;13764;-70
2021/08/05 03:23:52;;;;;;;;;;;;;;;;;;2132701;59;40461;-69
2021/08/05 03:26:19;;;;;;;;;;;;;;;;;;2135765;67;14668;-70
2021/08/05 03:28:47;;;;;;;;;;;;;;;;;;2133026;59;14842;-69
2021/08/05 03:31:14;;;;;;;;;;;;;;;;;;2136175;63;14576;-70
2021/08/05 03:33:40;;;;;;;;;;;;;;;;;;2134177;59;52143;-69
2021/08/05 03:36:06;;;;;;;;;;;;;;;;;;2134887;59;13782;-70
2021/08/05 03:38:33;;;;;;;;;;;;;;;;;;2136895;59;13390;-69
2021/08/05 03:41:01;;;;;;;;;;;;;;;;;;2132291;59;15522;-69
2021/08/05 03:43:27;;;;;;;;;;;;;;;;;;2134938;67;14494;-70
2021/08/05 03:45:55;;;;;;;;;;;;;;;;;;2133689;59;14071;-70
2021/08/05 03:48:22;;;;;;;;;;;;;;;;;;2134270;59;20347;-70
2021/08/05 03:50:48;;;;;;;;;;;;;;;;;;2134918;64;14534;-70
2021/08/05 03:53:15;;;;;;;;;;;;;;;;;;2132281;59;50324;-70
2021/08/05 03:55:41;;;;;;;;;;;;;;;;;;2134522;59;19319;-70
2021/08/05 03:58:09;;;;;;;;;;;;;;;;;;2133479;59;16001;-70
2021/08/05 04:00:36;;;;;;;;;;;;;;;;;;2134807;59;14477;-70
2021/08/05 04:03:04;;;;;;;;;;;;;;;;;;2136013;59;14603;-70
2021/08/05 04:05:30;;;;;;;;;;;;;;;;;;2132805;59;14121;-70
2021/08/05 04:07:57;;;;;;;;;;;;;;;;;;2133683;67;17295;-71
2021/08/05 04:10:23;;;;;;;;;;;;;;;;;;2134534;59;16090;-70
2021/08/05 04:12:50;;;;;;;;;;;;;;;;;;2134582;59;15131;-70
2021/08/05 04:15:16;;;;;;;;;;;;;;;;;;2135259;67;18813;-69
2021/08/05 04:17:43;;;;;;;;;;;;;;;;;;2138396;53;14319;-70
2021/08/05 04:20:12;;;;;;;;;;;;;;;;;;2135520;59;17205;-71
2021/08/05 04:22:38;;;;;;;;;;;;;;;;;;2134673;59;15900;-73
2021/08/05 04:25:05;;;;;;;;;;;;;;;;;;2134714;59;20280;-72
2021/08/05 04:27:32;;;;;;;;;;;;;;;;;;2135176;59;13618;-70
2021/08/05 04:29:59;;;;;;;;;;;;;;;;;;2128689;59;16106;-71
2021/08/05 04:32:25;;;;;;;;;;;;;;;;;;2132688;59;15182;-72
2021/08/05 04:34:52;;;;;;;;;;;;;;;;;;2129537;59;14412;-73
2021/08/05 04:37:20;;;;;;;;;;;;;;;;;;2127179;67;14048;-69
2021/08/05 04:39:47;;;;;;;;;;;;;;;;;;2130203;59;31058;-70
2021/08/05 04:42:13;;;;;;;;;;;;;;;;;;2129259;59;14236;-69
2021/08/05 04:44:40;;;;;;;;;;;;;;;;;;2131541;59;21589;-73
2021/08/05 04:47:07;;;;;;;;;;;;;;;;;;2130629;59;16278;-69
2021/08/05 04:49:34;;;;;;;;;;;;;;;;;;2129566;59;15799;-72
2021/08/05 04:52:00;;;;;;;;;;;;;;;;;;2131560;59;21933;-71
2021/08/05 04:54:28;;;;;;;;;;;;;;;;;;2129723;59;24786;-70
2021/08/05 04:56:54;;;;;;;;;;;;;;;;;;2131289;67;18029;-69
2021/08/05 04:59:21;;;;;;;;;;;;;;;;;;2128885;59;17564;-69
2021/08/05 05:01:48;;;;;;;;;;;;;;;;;;2127400;59;20257;-72
2021/08/05 05:04:14;;;;;;;;;;;;;;;;;;2130347;59;14909;-72
2021/08/05 05:06:40;;;;;;;;;;;;;;;;;;2131302;59;13680;-73
2021/08/05 05:09:07;;;;;;;;;;;;;;;;;;2132420;59;15014;-70
2021/08/05 05:11:35;;;;;;;;;;;;;;;;;;2128751;59;17637;-69
2021/08/05 05:14:01;;;;;;;;;;;;;;;;;;2130947;59;20972;-69
2021/08/05 05:16:28;;;;;;;;;;;;;;;;;;2132382;67;13724;-71
2021/08/05 05:18:54;;;;;;;;;;;;;;;;;;2132676;59;14900;-69
2021/08/05 05:21:21;;;;;;;;;;;;;;;;;;2133151;67;15110;-72
2021/08/05 05:23:47;;;;;;;;;;;;;;;;;;2132034;59;18119;-70
2021/08/05 05:26:14;;;;;;;;;;;;;;;;;;2132868;59;16738;-69
2021/08/05 05:28:42;;;;;;;;;;;;;;;;;;2132011;59;13458;-73
2021/08/05 05:31:09;;;;;;;;;;;;;;;;;;2130735;59;14417;-70
2021/08/05 05:33:35;;;;;;;;;;;;;;;;;;2130604;67;18536;-72
2021/08/05 05:36:02;;;;;;;;;;;;;;;;;;2127243;59;15621;-72
2021/08/05 05:38:28;;;;;;;;;;;;;;;;;;2130453;59;51750;-69
2021/08/05 05:40:55;;;;;;;;;;;;;;;;;;2127790;59;14926;-72
2021/08/05 05:43:21;;;;;;;;;;;;;;;;;;2127996;64;15973;-70
2021/08/05 05:45:49;;;;;;;;;;;;;;;;;;2131286;67;14097;-75
2021/08/05 05:48:16;;;;;;;;;;;;;;;;;;2132269;59;20694;-74
2021/08/05 05:50:43;;;;;;;;;;;;;;;;;;2130399;59;15418;-70
2021/08/05 05:53:09;;;;;;;;;;;;;;;;;;2128236;59;18664;-71
2021/08/05 05:55:39;;;;;;;;;;;;;;;;;;2132594;67;15926;-72
2021/08/05 05:58:06;;;;;;;;;;;;;;;;;;2130262;59;16464;-69
2021/08/05 06:00:32;;;;;;;;;;;;;;;;;;2132000;67;14571;-73
2021/08/05 06:03:02;;;;;;;;;;;;;;;;;;2131703;59;13731;-69
2021/08/05 06:05:29;;;;;;;;;;;;;;;;;;2131145;60;13651;-74
2021/08/05 06:07:55;;;;;;;;;;;;;;;;;;2131488;67;18884;-70
2021/08/05 06:10:22;;;;;;;;;;;;;;;;;;2131091;59;14653;-72
2021/08/05 06:12:49;;;;;;;;;;;;;;;;;;2131089;59;17363;-74
2021/08/05 06:15:16;;;;;;;;;;;;;;;;;;2130125;59;18537;-71
2021/08/05 06:17:44;;;;;;;;;;;;;;;;;;2132493;59;17759;-72
2021/08/05 06:20:13;;;;;;;;;;;;;;;;;;2132924;59;17118;-72
2021/08/05 06:22:40;;;;;;;;;;;;;;;;;;2129318;67;17163;-71
2021/08/05 06:25:07;;;;;;;;;;;;;;;;;;2132306;59;14450;-71
2021/08/05 06:27:33;;;;;;;;;;;;;;;;;;2132111;67;16330;-73
2021/08/05 06:30:00;;;;;;;;;;;;;;;;;;2131942;64;25598;-71
2021/08/05 06:32:27;;;;;;;;;;;;;;;;;;2132326;67;17975;-70
2021/08/05 06:34:53;;;;;;;;;;;;;;;;;;2132849;67;17887;-72
2021/08/05 06:37:21;;;;;;;;;;;;;;;;;;2132176;64;21914;-71
2021/08/05 06:39:48;;;;;;;;;;;;;;;;;;2126614;67;18512;-71
2021/08/05 06:42:14;;;;;;;;;;;;;;;;;;2131669;64;43318;-69
2021/08/05 06:44:41;;;;;;;;;;;;;;;;;;2130687;67;18832;-71
2021/08/05 06:47:07;;;;;;;;;;;;;;;;;;2131736;59;20520;-71
2021/08/05 06:49:35;;;;;;;;;;;;;;;;;;2131616;67;14830;-70
2021/08/05 06:52:02;;;;;;;;;;;;;;;;;;2131596;59;16958;-71
2021/08/05 06:54:30;;;;;;;;;;;;;;;;;;2133070;64;16442;-73
2021/08/05 06:56:56;;;;;;;;;;;;;;;;;;2131312;67;17389;-74
2021/08/05 06:59:23;;;;;;;;;;;;;;;;;;2133409;59;15653;-70
2021/08/05 07:01:49;;;;;;;;;;;;;;;;;;2131506;59;19694;-70
2021/08/05 07:04:16;;;;;;;;;;;;;;;;;;2133897;64;14837;-71
2021/08/05 07:06:42;;;;;;;;;;;;;;;;;;2132074;59;16028;-70
2021/08/05 07:09:09;;;;;;;;;;;;;;;;;;2132531;64;16813;-69
2021/08/05 07:11:37;;;;;;;;;;;;;;;;;;2131431;67;15872;-71
2021/08/05 07:14:05;;;;;;;;;;;;;;;;;;2128497;59;58333;-70
2021/08/05 07:16:31;;;;;;;;;;;;;;;;;;2132562;59;16228;-73
2021/08/05 07:18:58;;;;;;;;;;;;;;;;;;2133139;59;15030;-70
2021/08/05 07:21:24;;;;;;;;;;;;;;;;;;2131653;64;17048;-69
2021/08/05 07:23:51;;;;;;;;;;;;;;;;;;2132081;59;22123;-70
2021/08/05 07:26:17;;;;;;;;;;;;;;;;;;2132994;59;17955;-70
2021/08/05 07:28:45;;;;;;;;;;;;;;;;;;2132699;59;17093;-72
2021/08/05 07:31:12;;;;;;;;;;;;;;;;;;2132445;67;13973;-72
2021/08/05 07:33:38;;;;;;;;;;;;;;;;;;2132282;64;21626;-71
2021/08/05 07:36:05;;;;;;;;;;;;;;;;;;2131875;59;16135;-72
2021/08/05 07:38:31;;;;;;;;;;;;;;;;;;2131219;59;14330;-72
2021/08/05 07:40:58;;;;;;;;;;;;;;;;;;2130852;67;14236;-73
2021/08/05 07:43:25;;;;;;;;;;;;;;;;;;2131364;67;42004;-71
2021/08/05 07:45:53;;;;;;;;;;;;;;;;;;2130762;59;17411;-72
2021/08/05 07:48:19;;;;;;;;;;;;;;;;;;2132083;63;29027;-70
2021/08/05 07:50:46;;;;;;;;;;;;;;;;;;2131542;67;13683;-69
2021/08/05 07:53:12;;;;;;;;;;;;;;;;;;2131270;64;16306;-73
2021/08/05 07:55:39;;;;;;;;;;;;;;;;;;2132581;67;14761;-72
2021/08/05 07:58:05;;;;;;;;;;;;;;;;;;2134352;67;14728;-71
2021/08/05 08:00:35;;;;;;;;;;;;;;;;;;2132001;59;14344;-70
2021/08/05 08:03:03;;;;;;;;;;;;;;;;;;2131133;59;19176;-71
2021/08/05 08:05:30;;;;;;;;;;;;;;;;;;2131047;67;21280;-70
2021/08/05 08:07:56;;;;;;;;;;;;;;;;;;2129309;59;16673;-70
2021/08/05 08:10:23;;;;;;;;;;;;;;;;;;2128475;59;15782;-70
2021/08/05 08:12:49;;;;;;;;;;;;;;;;;;2131389;59;15170;-73
2021/08/05 08:15:17;;;;;;;;;;;;;;;;;;2129562;59;14452;-70
2021/08/05 08:17:43;;;;;;;;;;;;;;;;;;2132085;59;28789;-71
2021/08/05 08:20:12;;;;;;;;;;;;;;;;;;2130000;59;24283;-72
2021/08/05 08:22:38;;;;;;;;;;;;;;;;;;2131456;64;13643;-73
2021/08/05 08:25:05;;;;;;;;;;;;;;;;;;2128491;59;15698;-71
2021/08/05 08:27:32;;;;;;;;;;;;;;;;;;2128218;59;13805;-71
2021/08/05 08:29:58;;;;;;;;;;;;;;;;;;2131078;67;18979;-71
2021/08/05 08:32:25;;;;;;;;;;;;;;;;;;2129037;59;15614;-71
2021/08/05 08:34:52;;;;;;;;;;;;;;;;;;2131856;59;15786;-71
2021/08/05 08:37:20;;;;;;;;;;;;;;;;;;2131873;67;15442;-71
2021/08/05 08:39:46;;;;;;;;;;;;;;;;;;2127163;59;36990;-71
2021/08/05 08:42:14;;;;;;;;;;;;;;;;;;2131583;67;16190;-70
2021/08/05 08:44:40;;;;;;;;;;;;;;;;;;2129963;59;14870;-71
2021/08/05 08:47:07;;;;;;;;;;;;;;;;;;2132306;59;16114;-71
2021/08/05 08:49:34;;;;;;;;;;;;;;;;;;2131992;59;15821;-71
2021/08/05 08:52:01;;;;;;;;;;;;;;;;;;2126890;59;140301;-72
2021/08/05 08:54:30;;;;;;;;;;;;;;;;;;2127294;67;16133;-71
2021/08/05 08:56:58;;;;;;;;;;;;;;;;;;2129719;59;18473;-71
2021/08/05 08:59:25;;;;;;;;;;;;;;;;;;2130426;59;14851;-70
2021/08/05 09:01:51;;;;;;;;;;;;;;;;;;2132091;59;17735;-71
2021/08/05 09:04:20;;;;;;;;;;;;;;;;;;2128989;59;15523;-71
2021/08/05 09:06:48;;;;;;;;;;;;;;;;;;2130571;64;16557;-72
2021/08/05 09:09:15;;;;;;;;;;;;;;;;;;2129764;59;16372;-74
2021/08/05 09:11:43;;;;;;;;;;;;;;;;;;2131068;59;17906;-72
2021/08/05 09:14:10;;;;;;;;;;;;;;;;;;2133095;67;15039;-72
2021/08/05 09:16:37;;;;;;;;;;;;;;;;;;2129407;59;14449;-73
2021/08/05 09:19:10;;;;;;;;;;;;;;;;;;2132558;59;16991;-70
2021/08/05 09:21:37;;;;;;;;;;;;;;;;;;2130293;67;15284;-70
2021/08/05 09:24:05;;;;;;;;;;;;;;;;;;2123899;59;19594;-70
2021/08/05 09:26:36;;;;;;;;;;;;;;;;;;2130452;59;14330;-71
2021/08/05 09:29:09;;;;;;;;;;;;;;;;;;2128861;59;19119;-71
2021/08/05 09:31:37;;;;;;;;;;;;;;;;;;2128452;64;16293;-71
2021/08/05 09:34:05;;;;;;;;;;;;;;;;;;2131564;67;14644;-70
2021/08/05 09:36:31;;;;;;;;;;;;;;;;;;2129738;59;16891;-72
2021/08/05 09:38:58;;;;;;;;;;;;;;;;;;2129967;59;23902;-71
2021/08/05 09:41:24;;;;;;;;;;;;;;;;;;2125232;59;131450;-72
2021/08/05 09:43:51;;;;;;;;;;;;;;;;;;2129515;59;15013;-71
2021/08/05 09:46:35;;;;;;;;;;;;;;;;;;2131641;59;22106;-72
2021/08/05 09:49:03;;;;;;;;;;;;;;;;;;2127631;59;14500;-71
2021/08/05 09:51:30;;;;;;;;;;;;;;;;;;2131211;67;16410;-71
2021/08/05 09:53:58;;;;;;;;;;;;;;;;;;2129383;59;17965;-71
2021/08/05 09:56:24;;;;;;;;;;;;;;;;;;2130415;59;14658;-70
2021/08/05 09:58:51;;;;;;;;;;;;;;;;;;2132706;59;17099;-72
2021/08/05 10:01:18;;;;;;;;;;;;;;;;;;2129114;59;15021;-71
2021/08/05 10:03:45;;;;;;;;;;;;;;;;;;2130942;59;16781;-70
2021/08/05 10:06:12;;;;;;;;;;;;;;;;;;2129804;59;18032;-73
2021/08/05 10:08:39;;;;;;;;;;;;;;;;;;2131022;59;18293;-73
2021/08/05 10:11:06;;;;;;;;;;;;;;;;;;2131706;67;15235;-71
2021/08/05 10:13:35;;;;;;;;;;;;;;;;;;2128692;59;19862;-71
2021/08/05 10:16:02;;;;;;;;;;;;;;;;;;2130492;67;17618;-72
2021/08/05 10:18:29;;;;;;;;;;;;;;;;;;2132403;59;16746;-71
2021/08/05 10:20:56;;;;;;;;;;;;;;;;;;2137635;53;19854;-71
2021/08/05 10:23:25;;;;;;;;;;;;;;;;;;2140623;59;14743;-71
2021/08/05 10:25:51;;;;;;;;;;;;;;;;;;2137578;59;19416;-71
2021/08/05 10:28:18;;;;;;;;;;;;;;;;;;2140648;59;13639;-71
2021/08/05 10:30:44;;;;;;;;;;;;;;;;;;2140903;66;18130;-71
2021/08/05 10:33:11;;;;;;;;;;;;;;;;;;2138028;59;18542;-71
2021/08/05 10:35:38;;;;;;;;;;;;;;;;;;2140351;59;14895;-71
2021/08/05 10:38:05;;;;;;;;;;;;;;;;;;2137340;59;14599;-72
2021/08/05 10:40:33;;;;;;;;;;;;;;;;;;2140669;59;13759;-71
2021/08/05 10:43:01;;;;;;;;;;;;;;;;;;2140294;66;20986;-71
2021/08/05 10:45:27;;;;;;;;;;;;;;;;;;2137353;59;15392;-71
2021/08/05 10:47:55;;;;;;;;;;;;;;;;;;2137698;67;14805;-71
2021/08/05 10:50:22;;;;;;;;;;;;;;;;;;2142342;66;14847;-71
2021/08/05 10:52:49;;;;;;;;;;;;;;;;;;2138676;59;14419;-71
2021/08/05 10:55:23;;;;;;;;;;;;;;;;;;2143142;59;13946;-71
2021/08/05 10:58:05;;;;;;;;;;;;;;;;;;2138733;59;14784;-71
2021/08/05 11:00:52;;;;;;;;;;;;;;;;;;2142924;63;21170;-70
2021/08/05 11:03:34;;;;;;;;;;;;;;;;;;2141311;59;14813;-72
2021/08/05 11:06:00;;;;;;;;;;;;;;;;;;2141526;59;16368;-71
2021/08/05 11:08:27;;;;;;;;;;;;;;;;;;2143267;66;13691;-71
2021/08/05 11:11:13;;;;;;;;;;;;;;;;;;2138532;59;13694;-71
2021/08/05 11:13:39;;;;;;;;;;;;;;;;;;2141848;63;15503;-72
2021/08/05 11:16:07;;;;;;;;;;;;;;;;;;2139857;59;18948;-71
2021/08/05 11:18:34;;;;;;;;;;;;;;;;;;2141932;66;17573;-71
2021/08/05 11:21:19;;;;;;;;;;;;;;;;;;2143076;66;14512;-71
2021/08/05 11:23:45;;;;;;;;;;;;;;;;;;2139170;58;15369;-71
2021/08/05 11:26:12;;;;;;;;;;;;;;;;;;2142847;64;14065;-71
2021/08/05 11:28:46;;;;;;;;;;;;;;;;;;2140291;59;18379;-71
2021/08/05 11:31:26;;;;;;;;;;;;;;;;;;2141759;59;17817;-71
2021/08/05 11:33:53;;;;;;;;;;;;;;;;;;2142221;66;17312;-71
2021/08/05 11:36:22;;;;;;;;;;;;;;;;;;2139921;59;14103;-70
2021/08/05 11:38:58;;;;;;;;;;;;;;;;;;2142142;59;14934;-71
2021/08/05 11:41:39;;;;;;;;;;;;;;;;;;2140128;59;15887;-71
2021/08/05 11:44:23;;;;;;;;;;;;;;;;;;2142500;66;14614;-71
2021/08/05 11:47:04;;;;;;;;;;;;;;;;;;2141103;59;18965;-71
2021/08/05 11:49:33;;;;;;;;;;;;;;;;;;2141610;66;13991;-71
2021/08/05 11:51:59;;;;;;;;;;;;;;;;;;2143229;59;18643;-71
2021/08/05 11:54:26;;;;;;;;;;;;;;;;;;2140989;59;14274;-71
2021/08/05 11:56:59;;;;;;;;;;;;;;;;;;2144133;63;14342;-71
2021/08/05 11:59:35;;;;;;;;;;;;;;;;;;2140570;59;14768;-71
2021/08/05 12:02:05;;;;;;;;;;;;;;;;;;2141470;59;15095;-71
2021/08/05 12:04:33;;;;;;;;;;;;;;;;;;2144523;66;15214;-71
2021/08/05 12:07:18;;;;;;;;;;;;;;;;;;2140454;59;13669;-71
2021/08/05 12:09:48;;;;;;;;;;;;;;;;;;2142979;66;29478;-71
2021/08/05 12:12:15;;;;;;;;;;;;;;;;;;2139372;59;14801;-71
2021/08/05 12:14:46;;;;;;;;;;;;;;;;;;2143882;66;14028;-71
2021/08/05 12:17:12;;;;;;;;;;;;;;;;;;2139830;59;14698;-71
2021/08/05 12:19:48;;;;;;;;;;;;;;;;;;2141780;59;22554;-71
2021/08/05 12:22:15;;;;;;;;;;;;;;;;;;2143435;64;13688;-71
2021/08/05 12:24:43;;;;;;;;;;;;;;;;;;2141445;59;15390;-71
2021/08/05 12:27:09;;;;;;;;;;;;;;;;;;2142948;59;15152;-71
2021/08/05 12:29:36;;;;;;;;;;;;;;;;;;2141234;59;13876;-71
2021/08/05 12:32:06;;;;;;;;;;;;;;;;;;2140474;59;14630;-71
2021/08/05 12:34:33;;;;;;;;;;;;;;;;;;2145016;59;13725;-71
2021/08/05 12:37:13;;;;;;;;;;;;;;;;;;2140490;59;13911;-71
2021/08/05 12:39:40;;;;;;;;;;;;;;;;;;2141543;59;15489;-71
2021/08/05 12:42:08;;;;;;;;;;;;;;;;;;2142247;59;15375;-71
2021/08/05 12:44:35;;;;;;;;;;;;;;;;;;2142286;59;14694;-71
2021/08/05 12:47:03;;;;;;;;;;;;;;;;;;2144424;59;12847;-71
2021/08/05 12:49:30;;;;;;;;;;;;;;;;;;2140176;59;13818;-71
2021/08/05 12:51:57;;;;;;;;;;;;;;;;;;2142879;59;14799;-71
2021/08/05 12:54:25;;;;;;;;;;;;;;;;;;2141922;59;15040;-71
2021/08/05 12:56:52;;;;;;;;;;;;;;;;;;2142721;59;13697;-71
2021/08/05 12:59:21;;;;;;;;;;;;;;;;;;2144981;58;18237;-71
2021/08/05 13:02:02;;;;;;;;;;;;;;;;;;2138914;59;17653;-69
2021/08/05 13:04:31;;;;;;;;;;;;;;;;;;2144821;66;14163;-71
2021/08/05 13:06:58;;;;;;;;;;;;;;;;;;2142473;59;13370;-71
2021/08/05 13:09:26;;;;;;;;;;;;;;;;;;2142190;59;14279;-71
2021/08/05 13:11:54;;;;;;;;;;;;;;;;;;2144055;59;15566;-71
2021/08/05 13:14:27;;;;;;;;;;;;;;;;;;2141454;59;14947;-71
2021/08/05 13:17:02;;;;;;;;;;;;;;;;;;2143544;59;14087;-71
2021/08/05 13:19:29;;;;;;;;;;;;;;;;;;2141020;59;14732;-71
2021/08/05 13:21:58;;;;;;;;;;;;;;;;;;2140790;59;15466;-71
2021/08/05 13:24:27;;;;;;;;;;;;;;;;;;2144164;59;18450;-70
2021/08/05 13:26:55;;;;;;;;;;;;;;;;;;2139148;59;19396;-71
2021/08/05 13:29:38;;;;;;;;;;;;;;;;;;2143467;66;18531;-71
2021/08/05 13:32:04;;;;;;;;;;;;;;;;;;2138670;59;16817;-71
2021/08/05 13:34:31;;;;;;;;;;;;;;;;;;2142967;59;13727;-71
2021/08/05 13:36:58;;;;;;;;;;;;;;;;;;2142950;58;13423;-71
2021/08/05 13:39:39;;;;;;;;;;;;;;;;;;2140034;59;14569;-70
2021/08/05 13:42:07;;;;;;;;;;;;;;;;;;2141832;59;16234;-71
2021/08/05 13:44:34;;;;;;;;;;;;;;;;;;2139759;59;19255;-71
2021/08/05 13:47:00;;;;;;;;;;;;;;;;;;2143276;66;34123;-71
2021/08/05 13:49:27;;;;;;;;;;;;;;;;;;2140277;59;14830;-71
2021/08/05 13:51:54;;;;;;;;;;;;;;;;;;2141510;59;14738;-71
2021/08/05 13:54:20;;;;;;;;;;;;;;;;;;2144566;59;14194;-71
2021/08/05 13:56:47;;;;;;;;;;;;;;;;;;2140006;59;14640;-71
2021/08/05 13:59:15;;;;;;;;;;;;;;;;;;2144164;66;15265;-71
2021/08/05 14:01:41;;;;;;;;;;;;;;;;;;2140659;59;19446;-70
2021/08/05 14:04:10;;;;;;;;;;;;;;;;;;2143284;66;13712;-70
2021/08/05 14:06:36;;;;;;;;;;;;;;;;;;2144652;66;14260;-71
2021/08/05 14:09:03;;;;;;;;;;;;;;;;;;2138247;59;13699;-71
2021/08/05 14:11:30;;;;;;;;;;;;;;;;;;2144132;66;17118;-71
2021/08/05 14:13:56;;;;;;;;;;;;;;;;;;2139573;59;16475;-72
2021/08/05 14:16:24;;;;;;;;;;;;;;;;;;2142936;59;19635;-72
2021/08/05 14:18:50;;;;;;;;;;;;;;;;;;2144251;59;16259;-71
2021/08/05 14:21:17;;;;;;;;;;;;;;;;;;2139489;59;13572;-72
2021/08/05 14:23:43;;;;;;;;;;;;;;;;;;2140743;63;15755;-71
2021/08/05 14:26:10;;;;;;;;;;;;;;;;;;2139150;59;14231;-72
2021/08/05 14:28:36;;;;;;;;;;;;;;;;;;2141658;59;13946;-72
2021/08/05 14:31:03;;;;;;;;;;;;;;;;;;2143574;59;14356;-72
2021/08/05 14:33:31;;;;;;;;;;;;;;;;;;2139883;59;21609;-72
2021/08/05 14:35:57;;;;;;;;;;;;;;;;;;2142925;59;14208;-71
2021/08/05 14:38:24;;;;;;;;;;;;;;;;;;2141644;59;14656;-71
2021/08/05 14:40:50;;;;;;;;;;;;;;;;;;2142224;59;13890;-71
2021/08/05 14:43:17;;;;;;;;;;;;;;;;;;2143800;66;15558;-71
2021/08/05 14:45:43;;;;;;;;;;;;;;;;;;2139651;59;17742;-71
2021/08/05 14:48:10;;;;;;;;;;;;;;;;;;2142939;59;19023;-71
2021/08/05 14:50:38;;;;;;;;;;;;;;;;;;2141415;59;14556;-71
2021/08/05 14:53:04;;;;;;;;;;;;;;;;;;2142871;59;14365;-71
2021/08/05 14:55:31;;;;;;;;;;;;;;;;;;2143382;63;14596;-70
2021/08/05 14:57:57;;;;;;;;;;;;;;;;;;2138287;59;14173;-71
2021/08/05 15:00:24;;;;;;;;;;;;;;;;;;2142183;63;13957;-71
2021/08/05 15:02:50;;;;;;;;;;;;;;;;;;2139550;59;16252;-71
2021/08/05 15:05:17;;;;;;;;;;;;;;;;;;2140362;59;14543;-71
2021/08/05 15:07:45;;;;;;;;;;;;;;;;;;2141259;59;14867;-71
2021/08/05 15:10:12;;;;;;;;;;;;;;;;;;2139520;59;13751;-71
2021/08/05 15:12:38;;;;;;;;;;;;;;;;;;2142117;59;13646;-71
2021/08/05 15:15:05;;;;;;;;;;;;;;;;;;2138839;59;14621;-71
2021/08/05 15:17:32;;;;;;;;;;;;;;;;;;2141447;59;14936;-71
2021/08/05 15:19:59;;;;;;;;;;;;;;;;;;2142125;59;15431;-71
2021/08/05 15:22:25;;;;;;;;;;;;;;;;;;2139992;59;17763;-71
2021/08/05 15:24:53;;;;;;;;;;;;;;;;;;2143110;66;14341;-71
2021/08/05 15:27:19;;;;;;;;;;;;;;;;;;2139583;58;16372;-71
2021/08/05 15:29:46;;;;;;;;;;;;;;;;;;2141587;58;16357;-71
2021/08/05 15:32:12;;;;;;;;;;;;;;;;;;2143263;66;15725;-71
2021/08/05 15:34:39;;;;;;;;;;;;;;;;;;2140082;59;13837;-71
2021/08/05 15:37:05;;;;;;;;;;;;;;;;;;2142855;63;13771;-71
2021/08/05 15:39:32;;;;;;;;;;;;;;;;;;2140079;59;14403;-71
2021/08/05 15:42:00;;;;;;;;;;;;;;;;;;2141134;59;14594;-71
2021/08/05 15:44:29;;;;;;;;;;;;;;;;;;2143016;66;13119;-71
2021/08/05 15:46:55;;;;;;;;;;;;;;;;;;2139481;59;21035;-71
2021/08/05 15:49:22;;;;;;;;;;;;;;;;;;2142334;59;14225;-71
2021/08/05 15:51:48;;;;;;;;;;;;;;;;;;2140239;59;19701;-71
2021/08/05 15:54:16;;;;;;;;;;;;;;;;;;2142526;59;13814;-71
2021/08/05 15:56:42;;;;;;;;;;;;;;;;;;2143060;63;13154;-71
2021/08/05 15:59:12;;;;;;;;;;;;;;;;;;2140343;59;13425;-71
2021/08/05 16:01:39;;;;;;;;;;;;;;;;;;2142064;59;14631;-70
2021/08/05 16:04:05;;;;;;;;;;;;;;;;;;2140609;59;15157;-71
2021/08/05 16:06:34;;;;;;;;;;;;;;;;;;2141972;59;14354;-70
2021/08/05 16:09:00;;;;;;;;;;;;;;;;;;2143052;66;14104;-71
2021/08/05 16:11:27;;;;;;;;;;;;;;;;;;2139501;59;14332;-71
2021/08/05 16:13:53;;;;;;;;;;;;;;;;;;2142708;58;15216;-71
2021/08/05 16:16:22;;;;;;;;;;;;;;;;;;2140667;59;17152;-71
2021/08/05 16:18:48;;;;;;;;;;;;;;;;;;2142411;59;15212;-71
2021/08/05 16:21:15;;;;;;;;;;;;;;;;;;2143389;59;15827;-71
2021/08/05 16:23:41;;;;;;;;;;;;;;;;;;2139020;59;17701;-71
2021/08/05 16:26:08;;;;;;;;;;;;;;;;;;2142895;59;12898;-71
2021/08/05 16:28:34;;;;;;;;;;;;;;;;;;2140443;59;14117;-72
2021/08/05 16:31:01;;;;;;;;;;;;;;;;;;2141325;59;16386;-71
2021/08/05 16:33:29;;;;;;;;;;;;;;;;;;2142104;59;17618;-72
2021/08/05 16:35:55;;;;;;;;;;;;;;;;;;2137997;59;13640;-71
2021/08/05 16:38:22;;;;;;;;;;;;;;;;;;2140912;59;18374;-72
2021/08/05 16:40:49;;;;;;;;;;;;;;;;;;2138642;59;13625;-73
2021/08/05 16:43:15;;;;;;;;;;;;;;;;;;2141254;59;14482;-71
2021/08/05 16:45:42;;;;;;;;;;;;;;;;;;2142071;63;13814;-71
2021/08/05 16:48:08;;;;;;;;;;;;;;;;;;2140772;59;15030;-72
2021/08/05 16:50:36;;;;;;;;;;;;;;;;;;2143130;66;15481;-72